Date,TemperatureHighF,TemperatureAvgF,TemperatureLowF,DewpointHighF,DewpointAvgF,DewpointLowF,HumidityHigh,HumidityAvg,HumidityLow,PressureMaxIn,PressureMinIn,WindSpeedMaxMPH,WindSpeedAvgMPH,GustSpeedMaxMPH,PrecipitationSumIn
2013-11-1,91.6,73.9,69.3,75.4,67.3,49.9,99,84,29,29.62,29.46,0,0,0,0.00
2013-11-2,75.2,68.8,59.7,72.6,66.6,59.5,99,93,82,29.58,29.40,0,0,1,0.30
2013-11-3,81.0,64.7,55.0,62.9,49.9,20.4,99,67,14,29.74,29.57,2,0,4,0.01
2013-11-4,83.7,69.1,58.3,65.8,55.9,33.8,95,67,18,29.81,29.71,0,0,0,0.02
2013-11-5,87.1,74.6,67.8,69.2,64.1,51.3,93,73,31,29.79,29.73,1,0,2,0.04
2013-11-6,85.5,73.1,66.6,72.9,66.9,61.7,99,82,48,29.75,29.66,0,0,1,0.01
2013-11-7,82.2,71.7,65.1,73.4,68.8,64.9,99,91,64,29.67,29.57,0,0,0,0.00
2013-11-8,78.1,67.4,60.4,66.8,61.2,51.7,99,82,54,29.75,29.60,0,0,1,0.00
2013-11-9,86.2,68.6,59.2,67.8,58.5,52.0,99,74,32,29.81,29.72,0,0,0,0.00
2013-11-10,61.7,60.8,59.9,59.1,58.9,58.5,96,93,91,29.77,29.73,0,0,0,0.00
2013-11-14,73.2,71.5,70.7,72.9,71.2,70.4,99,99,99,29.94,29.93,0,0,0,0.00
2013-11-15,82.2,69.6,60.4,73.4,64.8,51.7,99,86,54,29.99,29.83,0,0,0,0.00
2013-11-16,84.4,66.4,59.0,67.9,60.3,56.4,99,82,39,30.08,29.95,0,0,1,0.00
2013-11-17,86.2,70.4,59.9,70.2,61.1,51.9,99,77,32,30.07,29.87,0,0,0,0.00
2013-11-18,71.6,71.0,70.5,71.0,70.5,70.0,99,98,97,29.92,29.88,0,0,0,0.00
2013-11-19,78.6,71.5,64.2,71.3,62.6,53.0,99,76,43,29.88,29.76,0,0,0,0.00
2013-11-20,85.8,71.7,63.7,71.8,66.4,62.7,99,84,58,30.01,29.86,0,0,0,0.00
2013-11-21,70.3,69.7,69.4,68.6,67.6,66.9,96,93,90,30.01,29.99,0,0,1,0.00
2013-11-22,83.8,72.2,66.9,78.1,68.8,64.6,99,90,61,30.11,30.00,0,0,0,0.21
2013-11-23,91.4,68.4,63.7,79.0,64.6,56.2,99,91,40,30.00,29.88,0,0,0,0.00
2013-11-24,72.7,64.6,60.4,67.7,55.5,45.2,94,73,52,30.15,29.92,0,0,0,0.00
2013-11-25,76.3,64.5,57.6,56.2,49.9,45.1,82,60,37,30.16,30.10,0,0,0,0.00